Time;durP1;ratioP1;P1;durP2;ratioP2;P2;SDS_P1;SDS_P2;PMS_P1;PMS_P2;Temp;Humidity;BMP_temperature;BMP_pressure;BME280_temperature;BME280_humidity;BME280_pressure;Samples;Min_cycle;Max_cycle;Signal;HPM_P1;HPM_P2
2022/01/13 00:01:00;;;;;;;8.38;4.25;;;4.50;99.90;;;;;;4245982;28;20047;-85
2022/01/13 00:03:02;;;;;;;16.95;5.20;;;4.50;99.90;;;;;;4242963;28;20048;-84
2022/01/13 00:05:05;;;;;;;15.20;4.53;;;4.60;99.90;;;;;;4227297;28;20040;-82
2022/01/13 00:07:10;;;;;;;11.88;5.53;;;4.60;99.90;;;;;;4242080;28;20134;-85
2022/01/13 00:09:13;;;;;;;14.45;6.43;;;4.70;99.90;;;;;;4244941;28;20079;-84
2022/01/13 00:11:16;;;;;;;15.48;6.40;;;4.70;99.90;;;;;;4256967;28;20039;-85
2022/01/13 00:13:25;;;;;;;15.98;6.20;;;4.80;99.90;;;;;;4273047;27;20057;-82
2022/01/13 00:15:40;;;;;;;12.13;5.78;;;4.90;99.90;;;;;;4251908;27;20044;-84
2022/01/13 00:20:29;;;;;;;11.23;5.68;;;5.00;99.90;;;;;;4240653;28;20023;-85
2022/01/13 00:22:50;;;;;;;11.07;6.28;;;4.90;99.90;;;;;;4231613;28;20600;-83
2022/01/13 00:24:57;;;;;;;15.65;6.20;;;5.10;99.90;;;;;;4246677;28;20149;-82
2022/01/13 00:27:00;;;;;;;13.45;6.63;;;5.10;99.90;;;;;;4244022;28;20046;-84
2022/01/13 00:29:03;;;;;;;16.30;6.30;;;5.10;99.90;;;;;;4231022;28;20032;-82
2022/01/13 00:31:07;;;;;;;10.65;6.18;;;5.10;99.90;;;;;;4243546;28;20048;-84
2022/01/13 00:33:11;;;;;;;15.75;7.20;;;5.10;99.90;;;;;;4225424;28;20052;-82
2022/01/13 00:35:13;;;;;;;17.52;7.95;;;5.10;99.90;;;;;;4200539;28;20049;-84
2022/01/13 00:37:15;;;;;;;18.67;7.25;;;5.00;99.90;;;;;;4221762;28;20056;-83
2022/01/13 00:39:17;;;;;;;14.25;7.05;;;5.00;99.90;;;;;;4215522;28;20048;-83
2022/01/13 00:41:20;;;;;;;13.95;7.13;;;4.90;99.90;;;;;;4215256;28;20053;-82
2022/01/13 00:43:23;;;;;;;17.27;7.60;;;4.80;99.90;;;;;;4244895;28;20082;-96
2022/01/13 00:45:25;;;;;;;15.25;7.43;;;4.70;99.90;;;;;;4209613;28;20053;-95
2022/01/13 00:47:29;;;;;;;13.80;6.53;;;4.60;99.90;;;;;;4212856;28;20040;-86
2022/01/13 00:49:31;;;;;;;14.00;6.70;;;4.50;99.90;;;;;;4212079;28;20099;-87
2022/01/13 00:51:34;;;;;;;16.55;7.10;;;4.50;99.90;;;;;;4209789;28;20122;-85
2022/01/13 00:53:36;;;;;;;14.32;6.43;;;4.50;99.90;;;;;;4217287;28;20044;-86
2022/01/13 00:57:49;;;;;;;18.15;6.90;;;4.30;99.90;;;;;;4233373;28;20044;-88
2022/01/13 00:59:51;;;;;;;14.20;7.32;;;4.30;99.90;;;;;;4185629;28;20135;-86
2022/01/13 01:01:54;;;;;;;13.77;8.40;;;4.30;99.90;;;;;;4184592;28;20048;-85
2022/01/13 01:03:57;;;;;;;23.25;9.07;;;4.30;99.90;;;;;;4184411;28;20122;-90
2022/01/13 01:06:01;;;;;;;29.85;14.05;;;4.40;99.90;;;;;;4204095;28;20118;-94
2022/01/13 01:08:09;;;;;;;27.55;13.82;;;4.50;99.90;;;;;;4193684;28;20036;-87
2022/01/13 01:10:11;;;;;;;26.48;13.85;;;4.80;99.90;;;;;;4232799;28;20116;-87
2022/01/13 01:12:14;;;;;;;27.05;13.73;;;5.00;99.90;;;;;;4218565;28;20115;-89
2022/01/13 01:14:17;;;;;;;28.23;14.07;;;5.10;99.90;;;;;;4220217;28;20044;-87
2022/01/13 01:16:21;;;;;;;30.48;14.50;;;5.10;99.90;;;;;;4221454;28;20044;-87
2022/01/13 01:20:35;;;;;;;29.83;15.15;;;5.00;99.90;;;;;;4234656;28;20062;-87
2022/01/13 01:22:44;;;;;;;29.38;14.77;;;5.00;99.90;;;;;;4224970;28;20060;-88
2022/01/13 01:25:00;;;;;;;25.52;14.35;;;5.00;99.90;;;;;;4190156;28;20041;-88
2022/01/13 01:27:15;;;;;;;27.58;15.00;;;5.10;99.90;;;;;;4189539;28;20048;-87
2022/01/13 01:29:25;;;;;;;28.13;14.80;;;5.20;99.90;;;;;;4208261;28;20048;-88
2022/01/13 01:31:31;;;;;;;28.75;14.23;;;5.20;99.90;;;;;;4209973;28;20041;-88
2022/01/13 01:33:36;;;;;;;28.92;14.50;;;5.20;99.90;;;;;;4219161;28;20048;-87
2022/01/13 01:35:38;;;;;;;24.27;14.23;;;5.20;99.90;;;;;;4222682;28;20094;-92
2022/01/13 01:37:43;;;;;;;30.85;14.38;;;5.20;99.90;;;;;;4207949;28;20098;-84
2022/01/13 01:39:47;;;;;;;31.50;14.60;;;5.10;99.90;;;;;;4211748;28;20043;-90
2022/01/13 01:41:52;;;;;;;28.10;14.48;;;5.10;99.90;;;;;;4212680;28;20079;-91
2022/01/13 01:44:01;;;;;;;29.42;13.98;;;5.00;99.90;;;;;;4213417;28;20285;-88
2022/01/13 01:46:03;;;;;;;26.17;13.98;;;5.00;99.90;;;;;;4212263;28;20048;-84
2022/01/13 01:48:05;;;;;;;30.30;13.50;;;4.90;99.90;;;;;;4211914;28;20044;-87
2022/01/13 01:50:18;;;;;;;25.40;14.15;;;4.90;99.90;;;;;;4237446;28;20042;-88
2022/01/13 01:52:20;;;;;;;27.27;12.93;;;4.90;99.90;;;;;;4210794;28;20040;-88
2022/01/13 01:54:24;;;;;;;26.58;13.40;;;4.70;99.90;;;;;;4212065;28;20078;-87
2022/01/13 01:56:26;;;;;;;23.15;12.80;;;4.60;99.90;;;;;;4223063;28;20063;-89
2022/01/13 01:58:29;;;;;;;20.00;12.07;;;4.50;99.90;;;;;;4200594;28;20079;-87
2022/01/13 02:00:31;;;;;;;24.27;13.13;;;4.40;99.90;;;;;;4186577;28;20053;-90
2022/01/13 02:02:34;;;;;;;29.88;14.35;;;4.30;99.90;;;;;;4185441;28;20045;-86
2022/01/13 02:04:36;;;;;;;28.90;12.88;;;4.20;99.90;;;;;;4183366;28;20048;-89
2022/01/13 02:06:39;;;;;;;22.15;12.63;;;4.10;99.90;;;;;;4181774;28;20057;-86
2022/01/13 02:08:41;;;;;;;23.08;12.48;;;4.00;99.90;;;;;;4183918;28;20072;-89
2022/01/13 02:10:45;;;;;;;27.08;12.48;;;3.90;99.90;;;;;;4198835;28;20045;-87
2022/01/13 02:12:51;;;;;;;22.48;12.07;;;3.90;99.90;;;;;;4182415;28;20049;-86
2022/01/13 02:15:16;;;;;;;32.28;13.98;;;3.80;99.90;;;;;;4183934;28;20118;-94
2022/01/13 02:17:24;;;;;;;25.52;12.40;;;3.80;99.90;;;;;;4219990;28;20051;-95
2022/01/13 02:19:26;;;;;;;25.88;12.52;;;3.60;99.90;;;;;;4200573;28;20048;-87
2022/01/13 02:21:29;;;;;;;30.60;13.32;;;3.60;99.90;;;;;;4198591;28;20074;-88
2022/01/13 02:23:39;;;;;;;27.45;13.48;;;3.60;99.90;;;;;;4191227;28;20602;-88
2022/01/13 02:25:41;;;;;;;23.70;13.07;;;3.60;99.90;;;;;;4182266;28;20055;-83
2022/01/13 02:27:43;;;;;;;26.35;14.00;;;3.60;99.90;;;;;;4215574;28;20496;-88
2022/01/13 02:29:45;;;;;;;26.77;13.57;;;3.60;99.90;;;;;;4186343;28;20054;-88
2022/01/13 02:31:48;;;;;;;24.77;12.55;;;3.60;99.90;;;;;;4198766;28;20049;-88
2022/01/13 02:33:51;;;;;;;26.38;13.30;;;3.50;99.90;;;;;;4182600;28;20045;-85
2022/01/13 02:35:54;;;;;;;28.60;13.70;;;3.40;99.90;;;;;;4182544;28;20049;-86
2022/01/13 02:37:56;;;;;;;23.05;12.55;;;3.30;99.90;;;;;;4182363;28;20057;-87
2022/01/13 02:39:58;;;;;;;28.15;13.23;;;3.10;99.90;;;;;;4204883;28;20048;-84
2022/01/13 02:42:02;;;;;;;30.75;14.88;;;3.10;99.90;;;;;;4215429;28;20052;-87
2022/01/13 02:44:13;;;;;;;30.73;14.00;;;2.90;99.90;;;;;;4210062;28;20047;-86
2022/01/13 02:48:38;;;;;;;27.23;14.27;;;2.80;99.90;;;;;;4212731;28;20051;-85
2022/01/13 02:50:40;;;;;;;33.20;16.23;;;2.80;99.90;;;;;;4215200;28;20074;-85
2022/01/13 02:52:42;;;;;;;26.42;11.98;;;2.70;99.90;;;;;;4215131;28;20109;-87
2022/01/13 02:54:44;;;;;;;25.73;11.70;;;2.70;99.90;;;;;;4198660;28;20041;-85
2022/01/13 02:56:46;;;;;;;23.63;12.00;;;2.60;99.90;;;;;;4199291;28;20048;-86
2022/01/13 02:58:48;;;;;;;32.38;14.55;;;2.60;99.90;;;;;;4215432;28;20417;-85
2022/01/13 03:00:50;;;;;;;30.50;14.57;;;2.60;99.90;;;;;;4206322;28;20101;-84
2022/01/13 03:02:52;;;;;;;28.13;13.77;;;2.50;99.90;;;;;;4215934;28;20047;-85
2022/01/13 03:04:54;;;;;;;26.25;12.80;;;2.50;99.90;;;;;;4215400;28;20043;-87
2022/01/13 03:06:56;;;;;;;24.95;11.27;;;2.50;99.90;;;;;;4215586;28;20065;-87
2022/01/13 03:08:58;;;;;;;25.98;12.40;;;2.40;99.90;;;;;;4215662;28;20048;-87
2022/01/13 03:11:00;;;;;;;25.90;11.45;;;2.40;99.90;;;;;;4216954;28;20064;-86
2022/01/13 03:13:03;;;;;;;23.35;11.02;;;2.40;99.90;;;;;;4208388;28;20060;-88
2022/01/13 03:15:05;;;;;;;26.92;12.98;;;2.30;99.90;;;;;;4208336;28;20051;-87
2022/01/13 03:17:07;;;;;;;22.20;12.32;;;2.30;99.90;;;;;;4216411;28;20048;-88
2022/01/13 03:19:10;;;;;;;26.73;13.18;;;2.20;99.90;;;;;;4215967;28;20122;-85
2022/01/13 03:21:12;;;;;;;31.00;13.13;;;2.20;99.90;;;;;;4210646;28;20045;-83
2022/01/13 03:23:18;;;;;;;25.88;13.27;;;2.20;99.90;;;;;;4198491;28;20052;-87
2022/01/13 03:25:22;;;;;;;29.45;13.35;;;2.10;99.90;;;;;;4211920;28;20055;-83
2022/01/13 03:27:33;;;;;;;31.17;14.15;;;2.10;99.90;;;;;;4213307;28;20095;-86
2022/01/13 03:29:35;;;;;;;25.45;12.70;;;2.10;99.90;;;;;;4199182;28;20049;-88
2022/01/13 03:31:37;;;;;;;28.48;13.90;;;2.10;99.90;;;;;;4199185;28;20045;-85
2022/01/13 03:33:39;;;;;;;27.10;12.88;;;2.00;99.90;;;;;;4202198;28;20097;-87
2022/01/13 03:35:43;;;;;;;28.13;13.35;;;2.00;99.90;;;;;;4203733;28;20044;-85
2022/01/13 03:37:45;;;;;;;33.08;13.70;;;2.00;99.90;;;;;;4214956;28;20056;-86
2022/01/13 03:39:47;;;;;;;27.55;13.80;;;1.90;99.90;;;;;;4215201;28;20055;-84
2022/01/13 03:41:50;;;;;;;29.25;12.85;;;1.90;99.90;;;;;;4214064;28;20079;-85
2022/01/13 03:43:53;;;;;;;25.92;13.18;;;1.90;99.90;;;;;;4215162;28;20068;-84
2022/01/13 03:45:56;;;;;;;29.45;13.60;;;1.90;99.90;;;;;;4198504;28;20040;-84
2022/01/13 03:48:01;;;;;;;30.75;14.55;;;1.90;99.90;;;;;;4199384;28;20077;-84
2022/01/13 03:50:03;;;;;;;;;;;2.00;99.90;;;;;;4211657;28;20044;-83
2022/01/13 03:52:23;;;;;;;30.05;13.90;;;2.00;99.90;;;;;;4202910;28;19927;-85
2022/01/13 03:54:35;;;;;;;32.95;14.05;;;2.00;99.90;;;;;;4201892;28;20093;-83
2022/01/13 03:56:43;;;;;;;34.45;15.15;;;2.00;99.90;;;;;;4202322;28;20075;-85
2022/01/13 03:59:17;;;;;;;34.65;15.10;;;2.00;99.90;;;;;;4212105;28;20428;-87
2022/01/13 04:01:51;;;;;;;37.67;15.38;;;2.00;99.90;;;;;;4202985;28;20622;-87
2022/01/13 04:03:53;;;;;;;33.15;14.73;;;2.00;99.90;;;;;;4203894;28;20072;-84
2022/01/13 04:06:11;;;;;;;34.58;14.30;;;1.90;99.90;;;;;;4207943;28;20047;-86
2022/01/13 04:08:15;;;;;;;29.95;14.00;;;1.90;99.90;;;;;;4220945;28;20588;-91
2022/01/13 04:10:44;;;;;;;34.60;14.50;;;1.90;99.90;;;;;;4229080;28;20047;-85
2022/01/13 04:12:46;;;;;;;31.88;14.32;;;1.90;99.90;;;;;;4202075;28;20075;-86
2022/01/13 04:14:54;;;;;;;30.83;13.43;;;1.80;99.90;;;;;;4202309;28;20064;-85
2022/01/13 04:16:56;;;;;;;37.08;14.73;;;1.80;99.90;;;;;;4203382;28;20045;-87
2022/01/13 04:19:04;;;;;;;32.95;14.70;;;1.80;99.90;;;;;;4208485;28;20078;-86
2022/01/13 04:21:06;;;;;;;27.83;12.77;;;1.80;99.90;;;;;;4218693;28;20123;-83
2022/01/13 04:23:08;;;;;;;35.70;14.63;;;1.80;99.90;;;;;;4219295;28;20040;-88
2022/01/13 04:25:10;;;;;;;31.25;13.65;;;1.90;99.90;;;;;;4218468;28;20079;-85
2022/01/13 04:27:23;;;;;;;36.55;16.42;;;1.90;99.90;;;;;;4215563;28;20044;-87
2022/01/13 04:29:34;;;;;;;41.92;14.70;;;1.90;99.90;;;;;;4215951;28;20595;-84
2022/01/13 04:31:36;;;;;;;30.38;14.32;;;2.00;99.90;;;;;;4201967;28;20056;-84
2022/01/13 04:33:38;;;;;;;35.40;14.02;;;2.00;99.90;;;;;;4234284;28;20048;-82
2022/01/13 04:35:41;;;;;;;40.20;15.10;;;2.00;99.90;;;;;;4218247;28;20048;-84
2022/01/13 04:37:43;;;;;;;38.72;15.80;;;2.00;99.90;;;;;;4202212;28;20438;-85
2022/01/13 04:39:45;;;;;;;36.63;14.60;;;1.90;99.90;;;;;;4202399;28;20523;-86
2022/01/13 04:41:48;;;;;;;37.85;14.07;;;1.90;99.90;;;;;;4201474;28;20106;-88
2022/01/13 04:43:50;;;;;;;37.40;14.15;;;1.90;99.90;;;;;;4205472;28;20047;-85
2022/01/13 04:45:52;;;;;;;38.03;14.45;;;2.00;99.90;;;;;;4218057;28;20138;-86
2022/01/13 04:47:56;;;;;;;37.05;14.40;;;2.00;99.90;;;;;;4217954;28;20132;-83
2022/01/13 04:49:58;;;;;;;38.83;15.52;;;2.00;99.90;;;;;;4218409;28;20044;-86
2022/01/13 04:52:00;;;;;;;36.63;15.93;;;2.00;99.90;;;;;;4217239;28;20503;-86
2022/01/13 04:54:02;;;;;;;34.72;15.13;;;2.00;99.90;;;;;;4200611;28;20048;-86
2022/01/13 04:56:10;;;;;;;36.15;15.18;;;2.00;99.90;;;;;;4200850;28;20052;-85
2022/01/13 04:58:12;;;;;;;43.17;17.45;;;1.90;99.90;;;;;;4218345;28;20056;-85
2022/01/13 05:00:14;;;;;;;40.38;16.58;;;1.90;99.90;;;;;;4202095;28;20558;-84
2022/01/13 05:02:16;;;;;;;39.63;17.50;;;2.00;99.90;;;;;;4212259;28;20173;-83
2022/01/13 05:04:18;;;;;;;39.50;17.75;;;2.00;99.90;;;;;;4216953;28;20876;-84
2022/01/13 05:06:20;;;;;;;39.70;16.77;;;2.00;99.90;;;;;;4217686;28;20056;-82
2022/01/13 05:08:22;;;;;;;34.00;15.07;;;2.00;99.90;;;;;;4208893;28;20045;-85
2022/01/13 05:10:24;;;;;;;34.28;15.88;;;1.90;99.90;;;;;;4203657;28;20500;-82
2022/01/13 05:12:33;;;;;;;29.83;15.25;;;1.90;99.90;;;;;;4216238;28;20048;-85
2022/01/13 05:14:35;;;;;;;34.13;14.50;;;1.90;99.90;;;;;;4208296;28;20072;-84
2022/01/13 05:17:47;;;;;;;34.72;14.93;;;1.90;99.90;;;;;;4212158;28;20052;-81
2022/01/13 05:21:19;;;;;;;39.13;14.90;;;1.80;99.90;;;;;;4215560;28;20048;-81
2022/01/13 05:23:21;;;;;;;33.05;13.98;;;1.70;99.90;;;;;;4218323;28;20087;-82
2022/01/13 05:25:23;;;;;;;36.35;13.48;;;1.70;99.90;;;;;;4215947;28;20118;-81
2022/01/13 05:27:25;;;;;;;36.47;12.27;;;1.70;99.90;;;;;;4216217;28;20082;-82
2022/01/13 05:29:27;;;;;;;31.05;13.43;;;1.70;99.90;;;;;;4213287;28;20064;-85
2022/01/13 05:31:29;;;;;;;33.90;13.50;;;1.70;99.90;;;;;;4218794;28;20040;-88
2022/01/13 05:33:31;;;;;;;29.38;12.35;;;1.80;99.90;;;;;;4219963;28;20052;-88
2022/01/13 05:35:36;;;;;;;36.50;13.63;;;1.80;99.90;;;;;;4216038;28;20074;-80
2022/01/13 05:37:38;;;;;;;33.65;13.18;;;1.80;99.90;;;;;;4215422;28;20531;-82
2022/01/13 05:39:40;;;;;;;35.10;13.60;;;1.90;99.90;;;;;;4216352;28;20094;-80
2022/01/13 05:41:42;;;;;;;35.50;14.63;;;1.90;99.90;;;;;;4213886;28;20040;-84
2022/01/13 05:43:44;;;;;;;32.83;13.60;;;1.90;99.90;;;;;;4198688;28;20076;-83
2022/01/13 05:45:46;;;;;;;39.33;14.25;;;1.80;99.90;;;;;;4206266;28;20527;-83
2022/01/13 05:47:49;;;;;;;38.80;15.18;;;1.80;99.90;;;;;;4199718;28;20048;-83
2022/01/13 05:49:51;;;;;;;50.47;17.02;;;1.80;99.90;;;;;;4198571;28;20155;-81
2022/01/13 05:51:53;;;;;;;34.42;15.32;;;1.80;99.90;;;;;;4203037;28;20507;-81
2022/01/13 05:53:55;;;;;;;46.78;16.25;;;1.80;99.90;;;;;;4211335;28;20531;-81
2022/01/13 05:55:57;;;;;;;36.45;14.68;;;1.80;99.90;;;;;;4214880;28;20467;-81
2022/01/13 05:57:59;;;;;;;34.75;13.73;;;1.70;99.90;;;;;;4232001;28;20059;-82
2022/01/13 06:00:01;;;;;;;41.58;15.90;;;1.70;99.90;;;;;;4198933;28;20049;-83
2022/01/13 06:02:04;;;;;;;41.03;16.48;;;1.70;99.90;;;;;;4213342;28;20469;-80
2022/01/13 06:04:06;;;;;;;43.85;16.65;;;1.70;99.90;;;;;;4210168;28;20082;-81
2022/01/13 06:06:08;;;;;;;48.78;19.35;;;1.60;99.90;;;;;;4197756;28;20084;-80
2022/01/13 06:08:09;;;;;;;50.15;21.58;;;1.60;99.90;;;;;;4198128;28;20045;-85
2022/01/13 06:10:18;;;;;;;79.50;29.88;;;1.60;99.90;;;;;;4214862;28;20463;-80
2022/01/13 06:12:31;;;;;;;80.28;31.58;;;1.60;99.90;;;;;;4212098;28;20075;-80
2022/01/13 06:14:33;;;;;;;64.35;24.15;;;1.60;99.90;;;;;;4215789;28;20559;-81
2022/01/13 06:16:35;;;;;;;45.45;19.33;;;1.50;99.90;;;;;;4199796;28;20083;-80
2022/01/13 06:18:36;;;;;;;51.88;21.25;;;1.50;99.90;;;;;;4211163;28;20048;-80
2022/01/13 06:20:39;;;;;;;60.30;25.50;;;1.40;99.90;;;;;;4215751;28;20188;-82
2022/01/13 06:22:43;;;;;;;67.63;28.05;;;1.60;99.90;;;;;;4215112;28;20076;-83
2022/01/13 06:24:44;;;;;;;64.88;25.65;;;1.90;99.90;;;;;;4226573;28;20063;-91
2022/01/13 06:26:46;;;;;;;75.70;30.23;;;2.00;99.90;;;;;;4198823;28;20064;-79
2022/01/13 06:28:48;;;;;;;75.40;31.88;;;2.30;99.90;;;;;;4225526;28;20568;-81
2022/01/13 06:30:50;;;;;;;52.72;21.73;;;2.50;99.90;;;;;;4213407;28;20048;-80
2022/01/13 06:32:52;;;;;;;52.72;19.67;;;2.40;99.90;;;;;;4214545;28;20587;-81
2022/01/13 06:34:54;;;;;;;50.30;19.33;;;2.30;99.90;;;;;;4197763;28;20115;-82
2022/01/13 06:36:56;;;;;;;52.78;18.60;;;2.10;99.90;;;;;;4197798;28;20059;-80
2022/01/13 06:38:59;;;;;;;57.10;23.63;;;2.00;99.90;;;;;;4212109;28;20527;-80
2022/01/13 06:41:01;;;;;;;47.92;18.00;;;1.90;99.90;;;;;;4213677;28;20059;-80
2022/01/13 06:43:03;;;;;;;42.08;17.92;;;1.80;99.90;;;;;;4213467;28;20048;-81
2022/01/13 06:45:07;;;;;;;50.08;21.15;;;1.70;99.90;;;;;;4205507;28;20044;-81
2022/01/13 06:47:09;;;;;;;47.50;18.58;;;1.60;99.90;;;;;;4212637;28;20079;-81
2022/01/13 06:49:11;;;;;;;48.70;19.02;;;1.50;99.90;;;;;;4212897;28;20051;-80
2022/01/13 06:51:13;;;;;;;46.42;19.40;;;1.50;99.90;;;;;;4212769;28;20058;-80
2022/01/13 06:53:14;;;;;;;52.08;21.08;;;1.40;99.90;;;;;;4210378;28;20052;-81
2022/01/13 06:55:16;;;;;;;55.08;21.73;;;1.30;99.90;;;;;;4215960;28;20101;-80
2022/01/13 06:57:19;;;;;;;60.70;23.85;;;1.30;99.90;;;;;;4213873;28;20044;-80
2022/01/13 06:59:21;;;;;;;60.28;23.38;;;1.30;99.90;;;;;;4209943;28;20063;-80
2022/01/13 07:01:23;;;;;;;56.08;22.27;;;1.20;99.90;;;;;;4214510;28;20435;-79
2022/01/13 07:03:26;;;;;;;61.45;23.30;;;1.30;99.90;;;;;;4214493;28;20052;-82
2022/01/13 07:05:28;;;;;;;48.80;21.33;;;1.30;99.90;;;;;;4205646;28;20080;-80
2022/01/13 07:07:39;;;;;;;52.97;22.85;;;1.40;99.90;;;;;;4212754;28;20133;-89
2022/01/13 07:09:41;;;;;;;57.35;21.50;;;1.50;99.90;;;;;;4217452;28;20040;-79
2022/01/13 07:11:44;;;;;;;56.28;21.65;;;1.50;99.90;;;;;;4212993;28;20047;-79
2022/01/13 07:13:46;;;;;;;54.72;22.52;;;1.60;99.90;;;;;;4219257;28;20067;-80
2022/01/13 07:15:48;;;;;;;55.28;21.73;;;1.70;99.90;;;;;;4220737;28;20059;-80
2022/01/13 07:17:50;;;;;;;57.40;21.65;;;1.80;99.90;;;;;;4206920;28;20652;-80
2022/01/13 07:19:53;;;;;;;56.15;22.02;;;1.90;99.90;;;;;;4213598;28;20101;-79
2022/01/13 07:21:55;;;;;;;60.25;22.02;;;1.90;99.90;;;;;;4213706;28;20048;-80
2022/01/13 07:23:57;;;;;;;62.88;24.52;;;2.00;99.90;;;;;;4205657;28;20040;-80
2022/01/13 07:25:59;;;;;;;56.92;22.70;;;2.10;99.90;;;;;;4209903;28;20049;-82
2022/01/13 07:28:01;;;;;;;57.40;22.92;;;2.20;99.90;;;;;;4206122;28;20079;-81
2022/01/13 07:30:04;;;;;;;56.55;22.33;;;2.30;99.90;;;;;;4216479;28;20047;-81
2022/01/13 07:32:06;;;;;;;55.00;20.73;;;2.30;99.90;;;;;;4216776;28;20051;-80
2022/01/13 07:34:08;;;;;;;60.03;21.98;;;2.30;99.90;;;;;;4217246;28;20044;-81
2022/01/13 07:36:10;;;;;;;52.95;22.17;;;2.40;99.90;;;;;;4230630;28;20050;-83
2022/01/13 07:38:12;;;;;;;51.50;22.63;;;2.50;99.90;;;;;;4209863;28;20177;-80
2022/01/13 07:40:15;;;;;;;57.30;22.80;;;2.50;99.90;;;;;;4200687;28;20500;-81
2022/01/13 07:42:17;;;;;;;49.17;21.00;;;2.60;99.90;;;;;;4201332;28;20067;-82
2022/01/13 07:44:19;;;;;;;51.67;21.77;;;2.70;99.90;;;;;;4212187;28;20102;-83
2022/01/13 07:46:24;;;;;;;57.95;25.25;;;2.70;99.90;;;;;;4217256;28;20389;-84
2022/01/13 07:48:26;;;;;;;66.22;25.65;;;2.70;99.90;;;;;;4217167;28;20048;-82
2022/01/13 07:50:28;;;;;;;60.53;23.33;;;2.80;99.90;;;;;;4216621;28;20048;-84
2022/01/13 07:52:30;;;;;;;57.35;24.65;;;2.80;99.90;;;;;;4215997;28;20056;-83
2022/01/13 07:54:32;;;;;;;60.08;23.52;;;2.90;99.90;;;;;;4215135;28;20134;-82
2022/01/13 07:56:35;;;;;;;62.80;23.52;;;2.90;99.90;;;;;;4216687;28;20055;-86
2022/01/13 07:58:38;;;;;;;58.22;23.65;;;3.00;99.90;;;;;;4217878;28;20052;-84
2022/01/13 08:00:42;;;;;;;51.05;21.50;;;3.00;99.90;;;;;;4214158;28;20082;-81
2022/01/13 08:02:44;;;;;;;55.55;21.67;;;3.10;99.90;;;;;;4217877;28;20048;-80
2022/01/13 08:04:46;;;;;;;70.35;29.50;;;3.10;99.90;;;;;;4204100;28;20044;-80
2022/01/13 08:06:49;;;;;;;56.38;23.17;;;3.20;99.90;;;;;;4205716;28;20474;-90
2022/01/13 08:08:56;;;;;;;57.00;22.40;;;3.30;99.90;;;;;;4217123;28;20048;-86
2022/01/13 08:10:58;;;;;;;60.05;24.02;;;3.30;99.90;;;;;;4210283;28;20070;-81
2022/01/13 08:13:00;;;;;;;56.08;22.73;;;3.40;99.90;;;;;;4219591;28;20047;-81
2022/01/13 08:15:03;;;;;;;57.83;22.70;;;3.40;99.90;;;;;;4202338;28;20336;-83
2022/01/13 08:17:07;;;;;;;60.50;22.17;;;3.50;99.90;;;;;;4209604;28;20041;-84
2022/01/13 08:21:30;;;;;;;51.72;21.20;;;3.50;99.90;;;;;;4213253;28;20126;-89
2022/01/13 08:23:32;;;;;;;52.00;21.05;;;3.60;99.90;;;;;;4205401;28;20064;-82
2022/01/13 08:25:34;;;;;;;54.85;22.52;;;3.60;99.90;;;;;;4203970;28;20443;-82
2022/01/13 08:27:37;;;;;;;59.33;23.85;;;3.70;99.90;;;;;;4210277;28;20045;-85
2022/01/13 08:29:42;;;;;;;49.15;21.48;;;3.70;99.90;;;;;;4227350;28;20044;-90
2022/01/13 08:31:46;;;;;;;55.38;22.30;;;3.80;99.90;;;;;;4211904;28;20591;-79
2022/01/13 08:33:48;;;;;;;56.08;22.85;;;3.80;99.90;;;;;;4215429;28;20048;-81
2022/01/13 08:35:52;;;;;;;56.00;22.50;;;3.80;99.90;;;;;;4207337;28;20487;-83
2022/01/13 08:37:54;;;;;;;57.60;21.13;;;3.90;99.90;;;;;;4206140;28;20047;-81
2022/01/13 08:39:57;;;;;;;49.15;20.40;;;3.90;99.90;;;;;;4224365;28;20048;-82
2022/01/13 08:41:58;;;;;;;52.22;20.98;;;4.00;99.90;;;;;;4207349;28;21098;-81
2022/01/13 08:44:00;;;;;;;58.10;21.85;;;4.10;99.90;;;;;;4215073;28;20408;-85
2022/01/13 08:46:05;;;;;;;54.88;21.08;;;4.10;99.90;;;;;;4216800;28;20048;-81
2022/01/13 08:48:07;;;;;;;54.92;20.92;;;4.20;99.90;;;;;;4217630;28;20044;-82
2022/01/13 08:50:09;;;;;;;52.92;20.05;;;4.20;99.90;;;;;;4230123;28;20057;-81
2022/01/13 08:52:12;;;;;;;52.30;20.15;;;4.20;99.90;;;;;;4220115;28;20114;-81
2022/01/13 08:54:14;;;;;;;50.13;20.98;;;4.30;99.90;;;;;;4218991;28;20052;-82
2022/01/13 08:56:19;;;;;;;47.72;20.35;;;4.30;99.90;;;;;;4216110;28;20036;-81
2022/01/13 08:58:25;;;;;;;49.50;21.05;;;4.30;99.90;;;;;;4227333;28;20502;-82
2022/01/13 09:00:27;;;;;;;50.00;20.52;;;4.40;99.90;;;;;;4214401;28;20090;-80
2022/01/13 09:02:33;;;;;;;61.70;20.27;;;4.40;99.90;;;;;;4218837;28;20046;-80
2022/01/13 09:04:35;;;;;;;54.65;20.17;;;4.50;99.90;;;;;;4229605;28;20069;-80
2022/01/13 09:06:37;;;;;;;44.30;17.70;;;4.60;99.90;;;;;;4212558;28;20078;-82
2022/01/13 09:08:40;;;;;;;41.78;17.77;;;4.70;99.90;;;;;;4210114;28;20081;-82
2022/01/13 09:10:43;;;;;;;46.58;17.25;;;4.80;99.90;;;;;;4233803;28;20052;-80
2022/01/13 09:12:45;;;;;;;49.53;20.17;;;4.80;99.90;;;;;;4220275;28;20040;-80
2022/01/13 09:14:50;;;;;;;47.65;19.08;;;4.90;99.90;;;;;;4219262;28;20047;-80
2022/01/13 09:16:53;;;;;;;41.13;18.90;;;4.90;99.90;;;;;;4219248;28;20125;-80
2022/01/13 09:20:58;;;;;;;42.75;18.73;;;5.00;99.90;;;;;;4210939;28;20103;-82
2022/01/13 09:23:00;;;;;;;44.95;17.88;;;5.10;99.90;;;;;;4217537;28;20048;-81
2022/01/13 09:25:03;;;;;;;45.47;17.52;;;5.20;99.90;;;;;;4221122;28;20060;-83
2022/01/13 09:27:06;;;;;;;32.35;16.10;;;5.20;99.90;;;;;;4220073;28;20048;-82
2022/01/13 09:29:09;;;;;;;37.78;17.17;;;5.30;99.90;;;;;;4214211;28;20114;-86
2022/01/13 09:31:11;;;;;;;41.22;17.30;;;5.30;99.90;;;;;;4217952;28;20074;-84
2022/01/13 09:33:13;;;;;;;40.63;17.13;;;5.40;99.90;;;;;;4209020;28;20084;-83
2022/01/13 09:35:15;;;;;;;42.60;17.85;;;5.50;99.90;;;;;;4227165;28;20039;-81
2022/01/13 09:37:17;;;;;;;40.83;16.85;;;5.60;99.90;;;;;;4211525;28;20048;-80
2022/01/13 09:39:19;;;;;;;37.03;18.20;;;5.60;99.90;;;;;;4214683;28;20048;-82
2022/01/13 09:41:26;;;;;;;35.80;16.77;;;5.60;99.90;;;;;;4217096;28;20097;-83
2022/01/13 09:43:29;;;;;;;36.92;16.55;;;5.70;99.90;;;;;;4219512;28;20043;-83
2022/01/13 09:45:32;;;;;;;32.15;16.02;;;5.70;99.90;;;;;;4226970;28;20044;-81
2022/01/13 09:47:37;;;;;;;26.27;14.00;;;5.70;99.90;;;;;;4209802;28;20056;-82
2022/01/13 09:49:42;;;;;;;35.67;14.90;;;5.80;99.90;;;;;;4215568;28;20044;-80
2022/01/13 09:51:45;;;;;;;28.58;14.30;;;5.80;99.90;;;;;;4234812;28;20070;-80
2022/01/13 09:53:47;;;;;;;30.70;15.13;;;5.70;99.90;;;;;;4219619;28;20087;-81
2022/01/13 09:55:49;;;;;;;26.50;13.80;;;5.80;99.90;;;;;;4215635;28;20044;-82
2022/01/13 09:57:53;;;;;;;28.80;14.55;;;5.80;99.90;;;;;;4221945;28;20332;-81
2022/01/13 10:01:58;;;;;;;26.25;13.18;;;5.90;99.90;;;;;;4179405;28;20059;-79
2022/01/13 10:04:00;;;;;;;25.33;14.00;;;6.00;99.90;;;;;;4172914;28;20582;-78
2022/01/13 10:06:12;;;;;;;25.60;13.60;;;6.00;99.90;;;;;;4186318;28;20091;-82
2022/01/13 10:08:14;;;;;;;27.02;12.27;;;6.00;99.90;;;;;;4192875;28;20079;-79
2022/01/13 10:10:19;;;;;;;25.52;13.40;;;6.00;99.90;;;;;;4192237;28;20041;-81
2022/01/13 10:12:33;;;;;;;28.48;13.02;;;5.90;99.90;;;;;;4196980;28;20050;-79
2022/01/13 10:16:48;;;;;;;23.25;11.90;;;5.90;99.90;;;;;;4165080;28;20677;-82
2022/01/13 10:18:52;;;;;;;23.80;12.85;;;6.00;99.90;;;;;;4163615;28;20714;-78
2022/01/13 10:21:19;;;;;;;21.73;11.82;;;6.00;99.90;;;;;;4183179;28;20045;-80
2022/01/13 10:23:21;;;;;;;23.42;13.07;;;6.10;99.90;;;;;;4182604;28;20076;-82
2022/01/13 10:25:29;;;;;;;19.52;12.13;;;6.10;99.90;;;;;;4169418;28;20049;-80
2022/01/13 10:27:34;;;;;;;22.92;13.13;;;6.20;99.90;;;;;;4177055;28;20048;-85
2022/01/13 10:29:44;;;;;;;18.75;12.20;;;6.30;99.90;;;;;;4179943;28;20056;-80
2022/01/13 10:31:50;;;;;;;22.30;11.57;;;6.40;99.90;;;;;;4165946;28;20528;-81
2022/01/13 10:33:53;;;;;;;21.27;12.10;;;6.40;99.90;;;;;;4177280;28;20430;-82
2022/01/13 10:36:09;;;;;;;20.58;12.05;;;6.50;99.90;;;;;;4181382;28;20050;-81
2022/01/13 10:38:16;;;;;;;19.48;11.48;;;6.60;99.90;;;;;;4186199;28;20073;-80
2022/01/13 10:40:22;;;;;;;21.58;12.40;;;6.50;99.90;;;;;;4179872;28;20056;-80
2022/01/13 10:44:41;;;;;;;19.02;11.95;;;6.70;99.90;;;;;;4179098;28;20048;-80
2022/01/13 10:47:00;;;;;;;20.55;11.80;;;6.70;99.90;;;;;;4179845;28;20493;-80
2022/01/13 10:49:09;;;;;;;18.55;10.82;;;6.70;99.90;;;;;;4173350;28;20523;-81
2022/01/13 10:51:11;;;;;;;19.08;11.02;;;6.80;99.90;;;;;;4173321;28;20092;-79
2022/01/13 10:53:35;;;;;;;18.50;11.27;;;6.80;99.90;;;;;;4195202;28;20064;-80
2022/01/13 10:55:40;;;;;;;19.27;10.20;;;6.80;99.90;;;;;;4180587;28;20052;-80
2022/01/13 10:57:45;;;;;;;16.65;10.32;;;6.90;99.90;;;;;;4180507;28;20049;-78
2022/01/13 10:59:47;;;;;;;20.83;11.23;;;6.80;99.90;;;;;;4179237;28;20124;-76
2022/01/13 11:01:50;;;;;;;18.83;10.40;;;6.80;99.90;;;;;;4179874;28;20052;-78